Latest Weather Observations for Coen Airport

IDQ60801

Issued at 11:05 pm EST Monday 20 October 2014 (issued every 30 minutes, with the page automatically refreshed every 10 minutes)

About weather observations | Map of weather stations | Latest weather observations for QLD | Other Formats
Station Details ID: 027073 Name: COEN AIRPORT Lat: -13.76 Lon: 143.12 Height: 159.3 m
Data from the previous 72 hours. | See also: Recent months at Coen Airport
Date/Time
EST
Temp
°C
App
Temp
°C
Dew
Point
Rel
Hum
%
Delta-T
°C
Wind Press
QNH
hPa
Press
MSL
hPa
Rain
since 9 am
mm
Dir
 
Spd
km/h
Gust
km/h
Spd
kts
Gust
kts
20/11:00pm 23.6 24.0 16.4 64 4.4 NE 9 28 5 15 1016.1 - 0.0
20/10:30pm 23.8 24.9 17.1 66 4.2 NE 7 17 4 9 1016.2 - 0.0
20/10:00pm 24.1 23.7 16.1 61 4.9 E 13 22 7 12 1016.1 - 0.0
20/09:30pm 24.1 22.9 16.1 61 4.9 E 17 28 9 15 1015.7 - 0.0
20/09:00pm 24.2 23.5 16.5 62 4.7 E 15 30 8 16 1015.6 1014.7 0.0
20/08:30pm 24.5 24.1 17.2 63 4.6 E 15 24 8 13 1015.4 - 0.0
20/08:00pm 24.4 25.2 17.4 65 4.4 E 9 26 5 14 1015.1 - 0.0
20/07:30pm 24.5 24.6 17.5 65 4.4 E 13 24 7 13 1014.7 - 0.0
20/07:00pm 24.6 25.0 17.3 64 4.6 NE 11 22 6 12 1014.6 - 0.0
20/06:30pm 25.2 24.6 16.6 59 5.3 ENE 15 30 8 16 1014.4 - 0.0
20/06:00pm 25.9 24.9 16.5 56 5.8 ENE 17 24 9 13 1014.2 1013.3 0.0
20/05:30pm 27.1 25.3 16.1 51 6.8 ENE 20 32 11 17 1013.8 - 0.0
20/05:00pm 28.0 25.4 16.0 48 7.4 NE 24 33 13 18 1013.6 - 0.0
20/04:30pm 29.5 27.3 16.0 44 8.4 ENE 22 39 12 21 1013.3 - 0.0
20/04:00pm 29.6 28.1 16.4 45 8.3 ENE 19 32 10 17 1013.2 - 0.0
20/03:30pm 29.0 27.3 16.2 46 8.0 ENE 20 33 11 18 1013.4 - 0.0
20/03:00pm 28.8 25.5 16.0 45 8.0 NE 28 30 15 16 1013.4 1012.5 0.0
20/02:30pm 30.6 28.9 17.3 45 8.5 E 22 33 12 18 1013.4 - 0.0
20/02:00pm 29.7 27.6 16.1 43 8.5 ENE 22 37 12 20 1013.7 - 0.0
20/01:30pm 30.2 28.3 16.6 44 8.6 ENE 22 33 12 18 1014.1 - 0.0
20/01:00pm 31.3 29.8 16.8 41 9.2 ENE 20 35 11 19 1014.5 - 0.0
20/12:30pm 31.7 30.5 17.6 43 9.1 ENE 20 35 11 19 1014.9 - 0.0
20/12:00pm 30.6 29.3 17.3 45 8.5 ESE 20 28 11 15 1015.4 1014.4 0.0
20/11:30am 29.5 28.7 17.0 47 7.9 E 17 30 9 16 1015.8 - 0.0
20/11:00am 29.6 28.1 16.4 45 8.3 E 19 30 10 16 1016.2 - 0.0
20/10:30am 29.5 28.0 16.7 46 8.1 ENE 20 28 11 15 1016.4 - 0.0
20/10:00am 27.8 26.2 16.1 49 7.3 E 19 32 10 17 1016.9 - 0.0
20/09:30am 27.9 26.5 16.5 50 7.1 ENE 19 32 10 17 1017.0 - 0.0
20/09:00am 27.9 26.9 16.5 50 7.1 E 17 32 9 17 1017.2 1016.4 0.0
20/08:30am 26.3 25.2 15.4 51 6.7 SE 15 20 8 11 1017.2 - 0.0
20/08:00am 26.0 25.9 16.0 54 6.2 ESE 11 19 6 10 1017.0 - 0.0
20/07:30am 24.6 24.7 16.6 61 4.9 SSW 11 17 6 9 1016.8 - 0.0
20/07:00am 22.5 23.4 16.5 69 3.7 SW 7 9 4 5 1016.4 - 0.0
20/06:30am 22.0 22.9 16.7 72 3.3 W 7 13 4 7 1015.8 - 0.0
20/06:00am 21.2 21.6 16.2 73 3.0 W 9 11 5 6 1015.6 1014.8 0.0
20/05:30am 21.3 21.8 15.6 70 3.4 WSW 7 11 4 6 1015.3 - 0.0
20/05:00am 22.3 22.6 16.1 68 3.8 S 9 22 5 12 1015.1 - 0.0
20/04:30am 21.8 23.8 16.1 70 3.5 CALM 0 13 0 7 1014.9 - 0.0
20/04:00am 22.7 21.2 16.3 67 3.9 ESE 19 32 10 17 1014.7 - 0.0
20/03:30am 22.7 22.0 16.5 68 3.8 E 15 28 8 15 1014.6 - 0.0
20/03:00am 22.6 23.5 16.6 69 3.7 ESE 7 11 4 6 1015.0 1014.1 0.0
20/02:30am 23.0 22.5 16.8 68 3.8 E 15 26 8 14 1015.1 - 0.0
20/02:00am 22.9 22.9 17.1 70 3.6 E 13 24 7 13 1015.3 - 0.0
20/01:30am 22.9 23.1 16.7 68 3.8 ESE 11 19 6 10 1015.6 - 0.0
20/01:00am 23.4 22.4 16.7 66 4.1 E 17 28 9 15 1016.0 - 0.0
20/12:30am 23.6 22.6 16.6 65 4.3 E 17 30 9 16 1016.2 - 0.0
20/12:00am 23.9 22.6 16.9 65 4.3 E 19 30 10 16 1016.7 1015.7 0.0
 
Date/Time
EST
Temp
°C
App
Temp
°C
Dew
Point
Rel
Hum
%
Delta-T
°C
Wind Press
QNH
hPa
Press
MSL
hPa
Rain
since 9 am
mm
Dir
 
Spd
km/h
Gust
km/h
Spd
kts
Gust
kts
19/11:30pm 23.6 22.7 16.9 66 4.1 E 17 28 9 15 1017.0 - 0.0
19/11:00pm 23.6 23.1 16.9 66 4.1 E 15 20 8 11 1017.2 - 0.0
19/10:30pm 23.9 23.0 16.9 65 4.3 E 17 26 9 14 1017.5 - 0.0
19/10:00pm 24.2 23.4 17.2 65 4.4 E 17 30 9 16 1017.5 - 0.0
19/09:30pm 24.6 24.0 17.6 65 4.4 ESE 17 28 9 15 1017.0 - 0.0
19/09:00pm 24.8 24.3 17.8 65 4.4 ESE 17 24 9 13 1016.6 1015.9 0.0
19/08:30pm 24.3 25.4 18.0 68 4.0 ENE 9 15 5 8 1016.3 - 0.0
19/08:00pm 23.9 24.1 17.6 68 3.9 ENE 13 20 7 11 1015.8 - 0.0
19/07:30pm 23.9 23.5 17.2 66 4.2 ENE 15 22 8 12 1015.4 - 0.0
19/07:00pm 24.2 22.9 16.7 63 4.6 ENE 19 30 10 16 1015.3 - 0.0
19/06:30pm 24.8 23.2 16.0 58 5.4 ENE 19 33 10 18 1015.0 - 0.0
19/06:00pm 25.6 24.4 16.2 56 5.8 E 17 24 9 13 1014.6 1013.8 0.0
19/05:30pm 26.7 25.0 16.3 53 6.5 ENE 20 33 11 18 1014.3 - 0.0
19/05:00pm 27.6 25.9 16.2 49 7.1 ENE 20 33 11 18 1013.8 - 0.0
19/04:30pm 28.7 26.7 15.6 45 8.1 ENE 20 33 11 18 1013.3 - 0.0
19/04:00pm 29.4 26.8 15.9 44 8.4 ENE 24 35 13 19 1013.1 - 0.0
19/03:30pm 29.7 27.1 15.0 40 9.0 ENE 22 39 12 21 1013.1 - 0.0
19/03:00pm 30.1 28.0 14.6 39 9.5 ENE 19 35 10 19 1013.2 1012.3 0.0
19/02:30pm 30.2 26.9 13.9 37 9.9 ENE 24 35 13 19 1013.4 - 0.0
19/02:00pm 30.6 27.0 14.2 36 10.0 ENE 26 39 14 21 1013.4 - 0.0
19/01:30pm 31.9 30.7 15.0 36 10.5 E 15 33 8 18 1013.8 - 0.0
19/01:00pm 31.0 28.4 13.3 34 10.7 E 19 32 10 17 1014.3 - 0.0
19/12:30pm 30.5 27.0 13.3 35 10.3 NE 24 41 13 22 1014.9 - 0.0
19/12:00pm 30.2 26.6 13.0 34 10.3 ENE 24 35 13 19 1015.4 1014.4 0.0
19/11:30am 29.8 26.3 13.5 36 9.8 E 24 37 13 20 1015.8 - 0.0
19/11:00am 30.4 27.5 12.8 34 10.5 E 20 33 11 18 1016.2 - 0.0
19/10:30am 29.3 25.2 12.7 36 9.8 ENE 26 41 14 22 1016.5 - 0.0
19/10:00am 28.7 25.1 11.7 35 9.9 E 22 41 12 22 1016.8 - 0.0
19/09:30am 28.8 24.7 11.4 34 10.1 E 24 41 13 22 1016.9 - 0.0
19/09:00am 28.3 24.9 13.8 41 8.7 E 24 44 13 24 1016.9 1016.1 0.0
19/08:30am 26.4 24.3 14.8 49 7.0 E 19 28 10 15 1017.0 - 0.0
19/08:00am 25.7 23.8 15.7 54 6.1 E 20 35 11 19 1017.0 - 0.0
19/07:30am 24.8 22.6 16.0 58 5.4 ESE 22 33 12 18 1016.8 - 0.0
19/07:00am 24.1 22.5 16.1 61 4.9 E 19 28 10 15 1016.4 - 0.0
19/06:30am 22.9 22.2 16.4 67 4.0 ESE 15 26 8 14 1016.1 - 0.0
19/06:00am 22.6 21.9 16.4 68 3.8 E 15 28 8 15 1015.7 1014.8 0.0
19/05:30am 22.2 21.4 16.0 68 3.8 ESE 15 24 8 13 1015.4 - 0.0
19/05:00am 22.6 21.9 16.4 68 3.8 ESE 15 26 8 14 1015.1 - 0.0
19/04:30am 22.5 22.5 16.3 68 3.8 ESE 11 17 6 9 1015.1 - 0.0
19/04:00am 23.3 23.1 16.6 66 4.1 ESE 13 24 7 13 1014.7 - 0.0
19/03:30am 23.2 23.1 16.0 64 4.4 SSE 11 15 6 8 1014.6 - 0.0
19/03:00am 23.2 23.9 15.5 62 4.7 E 6 17 3 9 1014.6 1013.7 0.0
19/02:30am 23.2 22.8 15.3 61 4.8 E 11 24 6 13 1014.9 - 0.0
19/02:00am 23.4 22.7 15.5 61 4.8 ENE 13 24 7 13 1015.1 - 0.0
19/01:30am 23.4 23.0 15.2 60 4.9 ENE 11 20 6 11 1015.3 - 0.0
19/01:00am 23.9 21.8 14.6 56 5.6 ESE 19 24 10 13 1015.6 - 0.0
19/12:30am 23.7 23.2 14.9 57 5.3 ENE 11 20 6 11 1016.0 - 0.0
19/12:00am 23.7 23.7 15.2 59 5.1 ENE 9 32 5 17 1016.3 1015.4 0.0
 
Date/Time
EST
Temp
°C
App
Temp
°C
Dew
Point
Rel
Hum
%
Delta-T
°C
Wind Press
QNH
hPa
Press
MSL
hPa
Rain
since 9 am
mm
Dir
 
Spd
km/h
Gust
km/h
Spd
kts
Gust
kts
18/11:30pm 23.8 22.1 14.8 57 5.4 ENE 17 30 9 16 1016.5 - 0.0
18/11:00pm 24.0 21.4 15.0 57 5.4 N 22 32 12 17 1016.5 - 0.0
18/10:30pm 23.6 22.9 15.4 60 5.0 E 13 22 7 12 1016.8 - 0.0
18/10:00pm 23.6 22.5 15.4 60 5.0 ENE 15 28 8 15 1016.7 - 0.0
18/09:30pm 23.7 22.7 15.5 60 5.0 ENE 15 22 8 12 1016.5 - 0.0
18/09:00pm 23.9 22.6 15.7 60 5.0 NE 17 22 9 12 1016.3 1015.4 0.0
18/08:30pm 23.6 23.0 15.6 61 4.8 ENE 13 24 7 13 1016.2 - 0.0
18/08:00pm 23.8 23.1 15.3 59 5.1 ENE 13 26 7 14 1016.0 - 0.0
18/07:30pm 24.0 22.8 16.0 61 4.9 ENE 17 33 9 18 1015.8 - 0.0
18/07:00pm 24.0 23.0 16.5 63 4.6 ENE 17 30 9 16 1015.2 - 0.0
18/06:30pm 24.4 23.2 16.1 60 5.1 ENE 17 30 9 16 1014.8 - 0.0
18/06:00pm 25.0 23.3 16.2 58 5.4 ENE 20 39 11 21 1014.4 1013.5 0.0
18/05:30pm 25.8 23.7 16.1 55 6.0 NE 22 33 12 18 1014.1 - 0.0
18/05:00pm 26.9 24.8 16.2 52 6.6 ENE 22 39 12 21 1013.6 - 0.0
18/04:30pm 27.4 24.6 16.4 51 6.8 NE 26 39 14 21 1013.4 - 0.0
18/04:00pm 28.2 25.8 16.5 49 7.3 NE 24 37 13 20 1013.3 - 0.0
18/03:30pm 29.5 27.4 16.3 45 8.3 ENE 22 33 12 18 1013.2 - 0.0
18/03:00pm 29.6 27.5 16.1 44 8.4 E 22 33 12 18 1013.2 1012.3 0.0
18/02:30pm 29.7 27.8 15.8 43 8.6 ENE 20 33 11 18 1013.2 - 0.0
18/02:00pm 30.9 29.5 16.5 42 9.1 E 19 32 10 17 1013.5 - 0.0
18/01:30pm 30.2 27.7 15.1 40 9.3 ENE 22 33 12 18 1013.8 - 0.0
18/01:00pm 31.0 28.7 14.6 37 10.1 ENE 20 32 11 17 1014.1 - 0.0
18/12:30pm 30.6 27.9 14.7 38 9.8 ENE 22 33 12 18 1014.8 - 0.0
18/12:00pm 30.9 28.7 14.5 37 10.0 E 19 37 10 20 1015.3 1014.4 0.0
18/11:30am 30.5 27.8 14.6 38 9.7 ENE 22 33 12 18 1015.7 - 0.0
18/11:00am 29.6 27.3 14.2 39 9.3 E 19 30 10 16 1016.1 - 0.0
18/10:30am 30.4 29.1 15.7 41 9.2 ENE 17 28 9 15 1016.3 - 0.0
18/10:00am 29.6 28.1 15.3 41 8.8 E 17 26 9 14 1016.5 - 0.0
18/09:30am 28.8 27.4 14.6 42 8.6 E 15 26 8 14 1016.7 - 0.0
18/09:00am 28.6 26.5 14.8 43 8.4 NE 19 26 10 14 1016.6 1015.8 0.2
18/08:30am 27.0 27.6 15.4 49 7.1 ENE 6 11 3 6 1016.3 - 0.2
18/08:00am 26.1 27.0 15.2 51 6.6 E 4 9 2 5 1016.2 - 0.2
18/07:30am 24.7 25.9 15.9 58 5.4 N 4 13 2 7 1015.8 - 0.2
18/07:00am 21.4 23.4 17.0 76 2.7 W 2 6 1 3 1015.5 - 0.2
18/06:30am 18.6 18.9 16.0 85 1.6 W 9 13 5 7 1015.3 - 0.2
18/06:00am 18.0 18.4 15.3 84 1.6 W 7 9 4 5 1015.0 1014.1 0.2
18/05:30am 18.0 19.7 15.1 83 1.7 CALM 0 0 0 0 1014.8 - 0.2
18/05:00am 19.3 21.0 16.2 82 1.9 SW 2 7 1 4 1014.7 - 0.2
18/04:30am 19.2 21.2 15.9 81 2.0 CALM 0 0 0 0 1014.7 - 0.2
18/04:00am 19.7 21.2 15.8 78 2.3 ESE 2 7 1 4 1014.5 - 0.2
18/03:30am 21.0 23.1 16.2 74 2.9 CALM 0 7 0 4 1014.4 - 0.2
18/03:00am 22.2 23.1 16.5 70 3.5 E 7 13 4 7 1014.4 1013.5 0.2
18/02:30am 22.7 23.0 16.0 66 4.1 E 9 20 5 11 1014.6 - 0.2
18/02:00am 23.3 22.6 16.4 65 4.2 ENE 15 22 8 12 1014.8 - 0.2
18/01:30am 22.5 23.9 17.4 73 3.2 E 6 11 3 6 1014.8 - 0.2
18/01:00am 22.9 24.3 17.8 73 3.2 NE 7 13 4 7 1014.8 - 0.2
18/12:30am 23.6 24.3 18.0 71 3.5 ENE 11 20 6 11 1014.8 - 0.2
18/12:00am 23.5 24.9 17.9 71 3.5 NE 7 13 4 7 1015.2 1014.3 0.2
 
Date/Time
EST
Temp
°C
App
Temp
°C
Dew
Point
Rel
Hum
%
Delta-T
°C
Wind Press
QNH
hPa
Press
MSL
hPa
Rain
since 9 am
mm
Dir
 
Spd
km/h
Gust
km/h
Spd
kts
Gust
kts
17/11:30pm 23.8 24.5 18.0 70 3.7 ENE 11 17 6 9 1015.5 - 0.2

Other Formats:

Comma delimited format used in spreadsheet applications
http://www.bom.gov.au/fwo/IDQ60801/IDQ60801.94183.axf

JavaScript Object Notation format (JSON) in row-major order
http://www.bom.gov.au/fwo/IDQ60801/IDQ60801.94183.json